Kidder, South Dakota
Current Conditions -  °F | °C
As of 6:15 PM on Thursday 27 Nov 2014 (Local Time) from KGWR Reporting Station
Overcast Overcast  
Wind Chill: -9°   Ceiling: 1500
Heat Index:   Visibility: 2mi
Dew Point:   Wind: 16mph
Humidity: 73%   Direction: 130°SE
Pressure: 30.17"   Gusts: NA
Location:  45.8144°N, 97.7089°W
Report Text: KGWR 280015Z AUTO 13014KT 2SM SCT002 OVC015 M13/M17 A3017 RMK A01 P000
Loading
Personal Weather Stations






























Interactive Weather Map New forecast layout! Learn more

10-Day Weather Forecast

Advertisements
Track Severe Weather on mobile